Strona główna
METAR-TAF:

METAR-TAF

Lotnisko :

Akron, Ohio, Stany Zjednoczone

Szerokość geograficzna: 41-02-15N, Długość geograficzna: 081-27-51W, wysokość: 325 m

Aktualna obserwacja pogody

Raport powstał 31 minut temu, godzina 17:54 UTC
Wiatr 13 kt od północ
Temperatura -4°C
Wilgotność 63%
Ciśnienie 1033 hPa
Widzialność: 11.3 km
Zachmurzenie całkowite na wysokości 3200 ft
słaby śnieg

METAR: KAKR 201754Z AUTO 35013KT 7SM -SN OVC032 M04/M10 A3051 RMK AO2 SNB12E24B48 SLP347 P0000 60000 T10391100 11022 21039 50000 $

czas: 13:25 (18:25 UTC)


TAF: brakujący

Obserwacja i prognoza pogody dla ponad 4000 lotnisk (raport METAR i TAF).

Dostępne stacje oznaczono żółtymi i czerwonymi punktami na mapie.

Najedź kursorem aby zobaczyć nazwę stacji.

Kliknij aby zobaczyć obserwacje i prognozy pogody.

Aby zmienić mapę: kliknij na zielony przycisk z czarnym krzyżykiem, aby powiększyć; na zielony przycisk z myślnikiem, aby pomniejszyć; na zielone strzałki, aby przejść do map sąsiednich.


METAR-TAF: